Edgemoor, Delaware
Current Conditions -  °F | °C
As of 7:51 PM on Sunday 21 Dec 2014 (Local Time) from KILG Reporting Station
Clear Clear  
Wind Chill: 24°   Ceiling: Unl
Heat Index: 30°   Visibility: 8mi
Dew Point: 22°   Wind: 6mph
Humidity: 72%   Direction: 350°N
Pressure: 30.35"   Gusts: NA
Location:  39.748°N, 75.5244°W
Report Text: KILG 220051Z 35005KT 8SM CLR M01/M06 A3035 RMK AO2 SLP276 T10111056
Loading
Personal Weather Stations






























Interactive Weather Map New forecast layout! Learn more

10-Day Weather Forecast

Advertisements
Track Severe Weather on mobile